Time;durP1;ratioP1;P1;durP2;ratioP2;P2;SDS_P1;SDS_P2;PMS_P1;PMS_P2;Temp;Humidity;BMP_temperature;BMP_pressure;BME280_temperature;BME280_humidity;BME280_pressure;Samples;Min_cycle;Max_cycle;Signal;HPM_P1;HPM_P2
2022/04/08 00:01:56;;;;;;;6.18;0.77;;;6.10;97.00;;;;;;4949813;28;20234;-52
2022/04/08 00:04:23;;;;;;;3.05;0.80;;;6.10;97.00;;;;;;4973308;28;20054;-55
2022/04/08 00:06:50;;;;;;;2.22;0.85;;;6.10;97.10;;;;;;4973865;28;20574;-56
2022/04/08 00:09:17;;;;;;;5.82;1.08;;;6.10;97.10;;;;;;4971770;28;20541;-56
2022/04/08 00:11:44;;;;;;;3.58;0.73;;;6.10;97.10;;;;;;4974325;28;20632;-55
2022/04/08 00:14:11;;;;;;;2.05;0.70;;;6.00;97.10;;;;;;4973697;28;20410;-57
2022/04/08 00:16:38;;;;;;;3.15;0.93;;;6.10;97.10;;;;;;4973323;28;20047;-57
2022/04/08 00:19:05;;;;;;;3.95;0.82;;;6.00;97.10;;;;;;4974316;28;20109;-56
2022/04/08 00:21:32;;;;;;;3.53;0.88;;;6.00;97.40;;;;;;4976935;28;20050;-55
2022/04/08 00:23:59;;;;;;;1.75;0.52;;;5.90;97.20;;;;;;4977623;28;20565;-55
2022/04/08 00:26:25;;;;;;;3.45;0.95;;;6.00;97.40;;;;;;4981536;28;20141;-55
2022/04/08 00:28:52;;;;;;;3.97;1.00;;;5.90;97.50;;;;;;4966113;28;20137;-56
2022/04/08 00:31:19;;;;;;;4.95;1.10;;;5.80;97.60;;;;;;4981737;28;20215;-55
2022/04/08 00:33:45;;;;;;;4.93;1.45;;;5.80;97.60;;;;;;4980063;28;20050;-57
2022/04/08 00:36:12;;;;;;;2.00;0.73;;;5.80;97.80;;;;;;4981688;28;20125;-56
2022/04/08 00:38:39;;;;;;;6.65;2.00;;;5.80;97.80;;;;;;4967483;28;20038;-56
2022/04/08 00:41:06;;;;;;;7.68;1.48;;;5.80;97.80;;;;;;4981819;28;20589;-57
2022/04/08 00:43:39;;;;;;;5.25;1.52;;;5.80;98.00;;;;;;4980547;28;20043;-57
2022/04/08 00:46:07;;;;;;;8.38;1.58;;;5.70;98.20;;;;;;4980898;28;20042;-55
2022/04/08 00:48:36;;;;;;;4.25;1.40;;;5.80;98.50;;;;;;4978098;28;20093;-55
2022/04/08 00:51:06;;;;;;;3.92;1.20;;;5.80;98.40;;;;;;4980017;28;20074;-57
2022/04/08 00:53:35;;;;;;;3.03;1.17;;;5.80;98.20;;;;;;4979668;28;20051;-57
2022/04/08 00:56:02;;;;;;;1.40;0.80;;;5.80;98.30;;;;;;4981144;28;20078;-56
2022/04/08 00:58:30;;;;;;;11.98;2.03;;;5.60;98.30;;;;;;4978957;28;20573;-54
2022/04/08 01:00:57;;;;;;;6.82;0.90;;;5.70;98.40;;;;;;4965699;28;20096;-55
2022/04/08 01:03:24;;;;;;;3.63;0.80;;;5.60;98.60;;;;;;4981020;28;20236;-55
2022/04/08 01:05:50;;;;;;;6.70;0.70;;;5.60;98.80;;;;;;4979666;28;20125;-55
2022/04/08 01:08:17;;;;;;;2.97;1.15;;;5.60;98.80;;;;;;4979885;28;20088;-53
2022/04/08 01:10:44;;;;;;;2.33;1.02;;;5.60;99.00;;;;;;4979701;28;20082;-55
2022/04/08 01:13:11;;;;;;;3.38;0.75;;;5.60;99.20;;;;;;4979343;28;20129;-54
2022/04/08 01:15:38;;;;;;;4.85;1.05;;;5.50;99.40;;;;;;4959646;28;20160;-54
2022/04/08 01:18:05;;;;;;;5.38;0.85;;;5.60;99.60;;;;;;4987256;28;20086;-52
2022/04/08 01:20:33;;;;;;;3.10;0.93;;;5.50;99.90;;;;;;4985591;28;20081;-50
2022/04/08 01:23:00;;;;;;;6.32;1.02;;;5.50;99.90;;;;;;4974953;28;20109;-55
2022/04/08 01:25:28;;;;;;;6.97;1.50;;;5.50;99.90;;;;;;4974396;28;20465;-56
2022/04/08 01:27:55;;;;;;;6.35;1.10;;;5.40;99.90;;;;;;4975508;28;20070;-55
2022/04/08 01:30:21;;;;;;;3.30;0.82;;;5.50;99.90;;;;;;4973977;28;20410;-55
2022/04/08 01:32:48;;;;;;;4.28;1.00;;;5.40;99.90;;;;;;4980367;28;20133;-54
2022/04/08 01:35:15;;;;;;;3.42;0.88;;;5.40;99.90;;;;;;4985174;28;20043;-54
2022/04/08 01:37:42;;;;;;;8.18;1.38;;;5.40;99.90;;;;;;4981004;28;20059;-54
2022/04/08 01:40:09;;;;;;;6.43;1.05;;;5.30;99.90;;;;;;4955263;28;20130;-54
2022/04/08 01:42:36;;;;;;;4.95;0.93;;;5.30;99.90;;;;;;4972963;28;20125;-55
2022/04/08 01:45:03;;;;;;;4.30;1.00;;;5.30;99.90;;;;;;4970364;28;20051;-51
2022/04/08 01:47:30;;;;;;;6.15;1.10;;;5.30;99.90;;;;;;4975000;28;20113;-57
2022/04/08 01:49:57;;;;;;;8.60;1.23;;;5.30;99.90;;;;;;4952839;28;20090;-52
2022/04/08 01:52:24;;;;;;;10.18;2.00;;;5.30;99.90;;;;;;4975137;28;20089;-50
2022/04/08 01:54:50;;;;;;;10.93;1.48;;;5.40;99.90;;;;;;4989424;28;20054;-53
2022/04/08 01:57:22;;;;;;;6.13;1.38;;;5.20;99.90;;;;;;4984502;28;20649;-52
2022/04/08 01:59:50;;;;;;;8.50;1.63;;;5.20;99.90;;;;;;4989190;28;20411;-54
2022/04/08 02:02:17;;;;;;;9.05;2.13;;;5.20;99.90;;;;;;4984067;28;20086;-56
2022/04/08 02:04:44;;;;;;;3.65;1.58;;;5.30;99.90;;;;;;4970836;28;20114;-55
2022/04/08 02:07:11;;;;;;;3.88;1.00;;;5.20;99.90;;;;;;4981368;28;20050;-55
2022/04/08 02:09:39;;;;;;;12.18;1.50;;;5.20;99.90;;;;;;4971080;28;20133;-54
2022/04/08 02:12:06;;;;;;;2.58;1.42;;;5.30;99.90;;;;;;4972808;28;20047;-55
2022/04/08 02:14:32;;;;;;;6.45;1.25;;;5.20;99.90;;;;;;4982482;28;20414;-52
2022/04/08 02:16:59;;;;;;;3.35;1.05;;;5.20;99.90;;;;;;4635457;28;10000686;-56
2022/04/08 02:19:26;;;;;;;4.53;0.88;;;5.20;99.90;;;;;;4974349;28;20055;-54
2022/04/08 02:21:52;;;;;;;10.68;1.75;;;5.20;99.90;;;;;;4970583;28;20047;-54
2022/04/08 02:24:19;;;;;;;11.52;1.48;;;5.20;99.90;;;;;;4980744;28;20512;-54
2022/04/08 02:26:46;;;;;;;10.63;1.67;;;5.20;99.90;;;;;;4968376;28;20078;-53
2022/04/08 02:29:13;;;;;;;4.43;1.10;;;5.20;99.90;;;;;;4977873;28;20066;-54
2022/04/08 02:31:39;;;;;;;5.07;1.35;;;5.20;99.90;;;;;;4987770;28;20560;-56
2022/04/08 02:34:06;;;;;;;7.57;1.42;;;5.30;99.90;;;;;;4980131;28;20046;-56
2022/04/08 02:36:33;;;;;;;3.60;1.08;;;5.30;99.90;;;;;;4969070;28;20062;-55
2022/04/08 02:39:00;;;;;;;11.02;2.63;;;5.40;99.90;;;;;;4974858;28;20550;-54
2022/04/08 02:41:27;;;;;;;3.53;1.20;;;5.40;99.90;;;;;;4977222;28;20077;-55
2022/04/08 02:43:54;;;;;;;6.38;1.23;;;5.40;99.90;;;;;;4983894;28;20081;-55
2022/04/08 02:46:21;;;;;;;6.65;1.05;;;5.40;99.90;;;;;;4984816;28;20075;-54
2022/04/08 02:48:47;;;;;;;9.50;1.90;;;5.40;99.90;;;;;;4972574;28;20054;-54
2022/04/08 02:51:14;;;;;;;10.98;1.52;;;5.40;99.90;;;;;;4985509;28;20485;-55
2022/04/08 02:53:41;;;;;;;10.55;2.00;;;5.40;99.90;;;;;;4983548;28;20058;-56
2022/04/08 02:56:08;;;;;;;9.77;1.63;;;5.40;99.90;;;;;;4973242;28;20053;-56
2022/04/08 02:58:36;;;;;;;9.40;1.80;;;5.40;99.90;;;;;;4972667;28;20122;-53
2022/04/08 03:01:03;;;;;;;5.70;1.08;;;5.40;99.90;;;;;;4981520;28;20588;-54
2022/04/08 03:03:29;;;;;;;8.30;1.25;;;5.50;99.90;;;;;;4983014;28;20141;-57
2022/04/08 03:05:57;;;;;;;6.47;1.13;;;5.40;99.90;;;;;;4978470;28;20066;-55
2022/04/08 03:08:24;;;;;;;5.40;1.30;;;5.40;99.90;;;;;;4983273;28;20101;-54
2022/04/08 03:10:50;;;;;;;7.13;1.15;;;5.40;99.90;;;;;;4978766;28;20101;-55
2022/04/08 03:13:17;;;;;;;7.22;1.77;;;5.30;99.90;;;;;;4969478;28;20078;-54
2022/04/08 03:15:44;;;;;;;13.20;1.10;;;5.30;99.90;;;;;;4977112;28;20425;-53
2022/04/08 03:18:11;;;;;;;4.65;2.00;;;5.20;99.90;;;;;;4987719;28;20054;-53
2022/04/08 03:20:38;;;;;;;5.03;1.52;;;5.30;99.90;;;;;;4979922;28;20093;-51
2022/04/08 03:23:05;;;;;;;5.95;1.23;;;5.20;99.90;;;;;;4968876;28;20086;-53
2022/04/08 03:25:32;;;;;;;6.75;1.42;;;5.10;99.90;;;;;;4972972;28;20082;-54
2022/04/08 03:27:59;;;;;;;5.60;1.50;;;5.10;99.90;;;;;;4968404;28;20089;-54
2022/04/08 03:30:27;;;;;;;8.73;1.38;;;5.20;99.90;;;;;;4979847;28;20588;-52
2022/04/08 03:32:55;;;;;;;7.38;1.20;;;5.20;99.90;;;;;;4968529;28;20047;-55
2022/04/08 03:35:21;;;;;;;7.20;1.40;;;5.20;99.90;;;;;;4972570;28;20120;-54
2022/04/08 03:37:48;;;;;;;2.60;1.10;;;5.20;99.90;;;;;;4963553;28;20514;-55
2022/04/08 03:40:15;;;;;;;3.70;1.45;;;5.10;99.90;;;;;;4976703;28;20521;-52
2022/04/08 03:42:42;;;;;;;5.63;1.00;;;5.00;99.90;;;;;;4985856;28;20525;-55
2022/04/08 03:45:09;;;;;;;7.53;1.60;;;5.00;99.90;;;;;;4983636;28;20077;-52
2022/04/08 03:47:35;;;;;;;14.48;1.60;;;5.10;99.90;;;;;;4974710;28;20051;-55
2022/04/08 03:50:02;;;;;;;3.42;1.25;;;5.10;99.90;;;;;;4972355;28;20050;-54
2022/04/08 03:52:32;;;;;;;10.60;1.67;;;5.10;99.90;;;;;;4979064;28;20295;-53
2022/04/08 03:55:02;;;;;;;5.45;1.40;;;5.10;99.90;;;;;;4983528;28;20047;-54
2022/04/08 03:57:29;;;;;;;3.15;1.13;;;5.20;99.90;;;;;;4978035;28;20055;-54
2022/04/08 03:59:55;;;;;;;5.15;1.10;;;5.20;99.90;;;;;;4973339;28;20043;-55
2022/04/08 04:02:22;;;;;;;5.38;1.25;;;5.20;99.90;;;;;;4977901;28;20332;-55
2022/04/08 04:04:50;;;;;;;4.07;1.08;;;5.20;99.90;;;;;;4989530;28;20050;-51
2022/04/08 04:07:19;;;;;;;4.07;1.05;;;5.20;99.90;;;;;;4979510;28;20077;-53
2022/04/08 04:09:46;;;;;;;8.60;1.63;;;5.10;99.90;;;;;;4976578;28;20132;-54
2022/04/08 04:12:14;;;;;;;3.70;1.00;;;5.10;99.90;;;;;;4978177;28;20050;-56
2022/04/08 04:14:41;;;;;;;6.22;1.83;;;5.00;99.90;;;;;;4990241;28;20046;-55
2022/04/08 04:17:07;;;;;;;9.88;1.52;;;5.00;99.90;;;;;;4978905;28;20105;-56
2022/04/08 04:19:34;;;;;;;6.45;1.10;;;5.10;99.90;;;;;;4990739;28;20054;-51
2022/04/08 04:22:01;;;;;;;2.88;0.98;;;5.10;99.90;;;;;;4986643;28;20050;-50
2022/04/08 04:24:28;;;;;;;6.28;2.13;;;5.10;99.90;;;;;;4972908;28;20151;-51
2022/04/08 04:26:54;;;;;;;8.40;1.60;;;5.10;99.90;;;;;;4975266;28;20142;-51
2022/04/08 04:29:21;;;;;;;4.65;1.48;;;5.10;99.90;;;;;;4987877;28;20137;-54
2022/04/08 04:31:48;;;;;;;7.18;1.38;;;5.10;99.90;;;;;;4986607;28;20418;-55
2022/04/08 04:34:15;;;;;;;3.22;1.20;;;5.10;99.90;;;;;;4977000;28;20138;-53
2022/04/08 04:36:42;;;;;;;4.78;1.60;;;5.00;99.90;;;;;;4975079;28;20043;-55
2022/04/08 04:39:09;;;;;;;8.77;1.75;;;4.90;99.90;;;;;;4983189;28;20046;-56
2022/04/08 04:41:36;;;;;;;13.00;2.08;;;4.90;99.90;;;;;;4973100;28;20122;-56
2022/04/08 04:44:03;;;;;;;5.43;1.30;;;5.10;99.90;;;;;;4977844;28;20081;-56
2022/04/08 04:46:30;;;;;;;12.52;2.10;;;5.00;99.90;;;;;;4959254;28;20134;-55
2022/04/08 04:48:56;;;;;;;5.95;1.15;;;5.10;99.90;;;;;;4979579;28;20042;-55
2022/04/08 04:51:23;;;;;;;4.20;1.15;;;5.10;99.90;;;;;;4989811;28;20701;-54
2022/04/08 04:53:50;;;;;;;6.13;1.30;;;5.10;99.90;;;;;;4981656;28;20521;-56
2022/04/08 04:56:17;;;;;;;8.80;1.60;;;5.10;99.90;;;;;;4970833;28;20066;-53
2022/04/08 04:58:44;;;;;;;8.55;1.55;;;5.10;99.90;;;;;;4977537;28;20482;-55
2022/04/08 05:01:10;;;;;;;5.57;1.35;;;5.10;99.90;;;;;;4990076;28;20581;-56
2022/04/08 05:03:39;;;;;;;4.70;1.02;;;5.10;99.90;;;;;;4984506;28;20757;-56
2022/04/08 05:06:06;;;;;;;8.90;2.22;;;5.10;99.90;;;;;;4969993;28;20101;-55
2022/04/08 05:08:33;;;;;;;6.25;1.60;;;5.10;99.90;;;;;;4974138;28;20050;-56
2022/04/08 05:11:00;;;;;;;9.93;1.70;;;5.10;99.90;;;;;;4969230;28;20130;-56
2022/04/08 05:13:27;;;;;;;5.65;1.60;;;5.10;99.90;;;;;;4977514;28;20073;-56
2022/04/08 05:15:56;;;;;;;7.35;1.60;;;5.00;99.90;;;;;;4970062;28;20153;-54
2022/04/08 05:18:23;;;;;;;8.25;1.75;;;5.00;99.90;;;;;;4985106;28;20132;-57
2022/04/08 05:20:52;;;;;;;11.65;2.03;;;5.00;99.90;;;;;;4975881;28;20050;-54
2022/04/08 05:23:19;;;;;;;4.40;1.65;;;5.00;99.90;;;;;;4974073;28;20057;-55
2022/04/08 05:25:46;;;;;;;5.85;2.03;;;5.10;99.90;;;;;;4965349;28;20270;-57
2022/04/08 05:28:15;;;;;;;13.88;2.38;;;5.10;99.90;;;;;;4985358;28;20097;-57
2022/04/08 05:30:43;;;;;;;13.93;2.55;;;5.20;99.90;;;;;;4979311;28;20055;-57
2022/04/08 05:33:14;;;;;;;7.38;2.35;;;5.20;99.90;;;;;;4974272;28;20050;-57
2022/04/08 05:35:41;;;;;;;6.28;1.13;;;5.20;99.90;;;;;;4979027;28;20450;-57
2022/04/08 05:38:08;;;;;;;3.13;1.35;;;5.20;99.90;;;;;;4987753;28;20047;-56
2022/04/08 05:40:35;;;;;;;9.38;2.10;;;5.30;99.90;;;;;;4986667;28;20164;-55
2022/04/08 05:43:02;;;;;;;9.38;2.17;;;5.20;99.90;;;;;;4974846;28;20086;-55
2022/04/08 05:45:28;;;;;;;4.43;1.65;;;5.10;99.90;;;;;;4980977;28;20085;-57
2022/04/08 05:47:55;;;;;;;6.13;1.95;;;5.10;99.90;;;;;;4952938;28;20101;-57
2022/04/08 05:50:22;;;;;;;5.15;1.55;;;5.10;99.90;;;;;;4975768;28;20090;-57
2022/04/08 05:52:51;;;;;;;2.72;1.30;;;5.20;99.90;;;;;;4989240;28;20090;-56
2022/04/08 05:55:18;;;;;;;5.43;1.45;;;5.20;99.90;;;;;;4984436;28;20047;-57
2022/04/08 05:57:47;;;;;;;8.43;1.73;;;5.20;99.90;;;;;;4969234;28;20059;-57
2022/04/08 06:00:15;;;;;;;7.45;2.30;;;5.30;99.90;;;;;;4973358;28;20122;-56
2022/04/08 06:02:45;;;;;;;8.75;1.25;;;5.30;99.90;;;;;;4987165;28;20643;-57
2022/04/08 06:05:15;;;;;;;4.90;1.23;;;5.30;99.90;;;;;;4990927;28;20046;-55
2022/04/08 06:07:45;;;;;;;5.07;1.80;;;5.30;99.90;;;;;;4971812;28;20058;-56
2022/04/08 06:10:12;;;;;;;6.43;1.65;;;5.40;99.90;;;;;;4973272;28;20407;-57
2022/04/08 06:12:39;;;;;;;14.35;2.00;;;5.30;99.90;;;;;;4983772;28;20556;-54
2022/04/08 06:15:06;;;;;;;14.38;1.90;;;5.40;99.90;;;;;;4976173;28;20046;-55
2022/04/08 06:17:37;;;;;;;12.25;2.20;;;5.40;99.90;;;;;;4981828;28;20137;-56
2022/04/08 06:20:11;;;;;;;6.38;1.27;;;5.50;99.90;;;;;;4984492;28;20081;-57
2022/04/08 06:22:41;;;;;;;8.82;1.55;;;5.50;99.90;;;;;;4976258;28;20058;-56
2022/04/08 06:25:12;;;;;;;7.53;2.28;;;5.50;99.90;;;;;;4972922;28;20193;-57
2022/04/08 06:27:39;;;;;;;17.55;2.25;;;5.50;99.90;;;;;;4976652;28;20052;-58
2022/04/08 06:30:10;;;;;;;8.15;1.75;;;5.60;99.90;;;;;;4962287;28;20192;-56
2022/04/08 06:32:38;;;;;;;5.28;1.23;;;5.60;99.90;;;;;;4980153;28;20082;-57
2022/04/08 06:35:05;;;;;;;5.70;1.17;;;5.60;99.90;;;;;;4979243;28;20553;-57
2022/04/08 06:37:32;;;;;;;19.70;3.20;;;5.70;99.90;;;;;;4976999;28;20125;-52
2022/04/08 06:40:06;;;;;;;15.15;2.33;;;5.70;99.90;;;;;;4977975;28;20149;-58
2022/04/08 06:42:41;;;;;;;11.85;1.77;;;5.80;99.90;;;;;;4919371;28;10000889;-55
2022/04/08 06:45:08;;;;;;;9.27;3.85;;;5.90;99.90;;;;;;4981861;28;20373;-57
2022/04/08 06:47:45;;;;;;;8.93;1.60;;;5.90;99.90;;;;;;4976831;28;20064;-54
2022/04/08 06:50:12;;;;;;;6.30;2.45;;;5.90;99.90;;;;;;4965953;28;20055;-57
2022/04/08 06:52:39;;;;;;;6.97;1.42;;;6.00;99.90;;;;;;4977024;28;20042;-60
2022/04/08 06:55:07;;;;;;;8.93;2.65;;;5.90;99.90;;;;;;4965113;28;20054;-57
2022/04/08 06:57:34;;;;;;;2.60;1.70;;;6.00;99.90;;;;;;4975034;28;20074;-57
2022/04/08 07:00:03;;;;;;;5.22;1.02;;;6.00;99.90;;;;;;4966983;28;20054;-59
2022/04/08 07:02:30;;;;;;;8.88;1.50;;;6.00;99.90;;;;;;4969323;28;20042;-58
2022/04/08 07:04:58;;;;;;;8.77;2.13;;;6.10;99.90;;;;;;4965334;28;20086;-57
2022/04/08 07:07:29;;;;;;;4.35;2.17;;;6.20;99.90;;;;;;4971519;28;20055;-60
2022/04/08 07:09:57;;;;;;;11.15;1.67;;;6.30;99.90;;;;;;4973706;28;20535;-58
2022/04/08 07:12:27;;;;;;;3.08;1.42;;;6.30;99.90;;;;;;4975454;28;20085;-58
2022/04/08 07:14:53;;;;;;;3.67;1.40;;;6.40;99.90;;;;;;4972049;28;20517;-58
2022/04/08 07:17:31;;;;;;;6.30;1.52;;;6.40;99.90;;;;;;4955330;28;20051;-57
2022/04/08 07:20:15;;;;;;;;;;;6.50;99.90;;;;;;4973037;28;20054;-57
2022/04/08 07:22:43;;;;;;;5.47;1.50;;;6.40;99.90;;;;;;4971999;28;19922;-57
2022/04/08 07:25:10;;;;;;;7.60;2.28;;;6.40;99.90;;;;;;4971419;28;20043;-58
2022/04/08 07:27:51;;;;;;;4.72;1.60;;;6.50;99.90;;;;;;4971388;28;20050;-58
2022/04/08 07:30:19;;;;;;;12.05;3.45;;;6.50;99.90;;;;;;4974667;28;20646;-57
2022/04/08 07:32:48;;;;;;;12.18;1.85;;;6.60;99.90;;;;;;4980601;28;20054;-53
2022/04/08 07:35:15;;;;;;;4.78;1.55;;;6.60;99.90;;;;;;4981530;28;20510;-54
2022/04/08 07:37:42;;;;;;;10.75;1.90;;;6.60;99.90;;;;;;4979017;28;20227;-55
2022/04/08 07:40:10;;;;;;;8.10;1.70;;;6.60;99.90;;;;;;4975826;28;20133;-56
2022/04/08 07:42:37;;;;;;;4.60;1.27;;;6.70;99.90;;;;;;4981368;28;20097;-54
2022/04/08 07:45:04;;;;;;;10.85;2.22;;;6.80;99.90;;;;;;4978240;28;20092;-55
2022/04/08 07:47:31;;;;;;;9.50;1.52;;;6.70;99.90;;;;;;4985864;28;20506;-56
2022/04/08 07:50:02;;;;;;;4.75;2.05;;;6.80;99.90;;;;;;4975953;28;20052;-54
2022/04/08 07:52:29;;;;;;;9.27;2.00;;;6.80;99.90;;;;;;4976871;28;20053;-56
2022/04/08 07:54:56;;;;;;;9.05;1.55;;;6.70;99.90;;;;;;4976384;28;20134;-57
2022/04/08 07:57:23;;;;;;;9.43;1.83;;;6.70;99.90;;;;;;4977342;28;20781;-55
2022/04/08 07:59:50;;;;;;;15.80;2.88;;;6.80;99.90;;;;;;4962441;28;20058;-55
2022/04/08 08:02:16;;;;;;;8.65;2.50;;;6.80;99.90;;;;;;4976529;28;20143;-57
2022/04/08 08:04:49;;;;;;;11.63;2.22;;;6.80;99.90;;;;;;4975463;28;20061;-55
2022/04/08 08:07:16;;;;;;;12.68;2.30;;;6.80;99.90;;;;;;4985893;28;20050;-55
2022/04/08 08:09:43;;;;;;;6.85;2.13;;;6.90;99.90;;;;;;4981825;28;20058;-55
2022/04/08 08:12:25;;;;;;;21.35;3.35;;;6.90;99.90;;;;;;4985743;28;20133;-57
2022/04/08 08:14:54;;;;;;;13.90;2.17;;;6.90;99.90;;;;;;4984532;28;20050;-55
2022/04/08 08:17:21;;;;;;;8.90;1.95;;;7.00;99.90;;;;;;4986166;28;20938;-56
2022/04/08 08:19:48;;;;;;;8.88;2.30;;;7.10;99.90;;;;;;4981530;28;20061;-57
2022/04/08 08:22:22;;;;;;;4.63;1.45;;;7.10;99.90;;;;;;4968737;28;20085;-57
2022/04/08 08:28:35;;;;;;;13.13;2.20;;;7.30;99.90;;;;;;4618673;28;10001046;-54
2022/04/08 08:31:02;;;;;;;9.10;1.60;;;7.50;99.90;;;;;;4967786;28;20066;-56
2022/04/08 08:33:29;;;;;;;7.22;1.85;;;7.50;99.90;;;;;;4968384;28;20053;-52
2022/04/08 08:35:56;;;;;;;10.25;2.08;;;7.60;99.90;;;;;;4967895;28;20085;-56
2022/04/08 08:38:23;;;;;;;5.88;1.98;;;7.60;99.90;;;;;;4967924;28;20757;-55
2022/04/08 08:40:50;;;;;;;7.80;2.20;;;7.60;99.90;;;;;;4967821;28;20096;-55
2022/04/08 08:43:20;;;;;;;7.68;1.73;;;7.60;99.90;;;;;;4966926;28;20588;-54
2022/04/08 08:45:50;;;;;;;13.60;2.10;;;7.70;99.90;;;;;;4966407;28;20075;-56
2022/04/08 08:48:22;;;;;;;12.73;2.33;;;7.70;99.90;;;;;;4967706;28;20094;-57
2022/04/08 08:50:50;;;;;;;7.88;2.30;;;7.80;99.90;;;;;;4967478;28;20082;-58
2022/04/08 08:53:18;;;;;;;6.82;1.83;;;7.90;99.90;;;;;;4967862;28;20050;-56
2022/04/08 08:55:50;;;;;;;17.70;2.20;;;7.90;99.90;;;;;;4967196;28;20492;-50
2022/04/08 08:58:17;;;;;;;8.80;3.67;;;7.90;99.90;;;;;;4967688;28;20137;-57
2022/04/08 09:00:44;;;;;;;13.90;2.97;;;7.90;99.90;;;;;;4967824;28;20043;-58
2022/04/08 09:03:11;;;;;;;7.90;2.97;;;7.80;99.90;;;;;;4967295;28;20133;-54
2022/04/08 09:05:43;;;;;;;5.40;1.88;;;7.80;99.90;;;;;;4966529;28;20899;-57
2022/04/08 09:08:10;;;;;;;13.55;2.65;;;7.80;99.90;;;;;;4967252;28;20054;-58
2022/04/08 09:10:39;;;;;;;16.73;3.28;;;7.90;99.90;;;;;;4966813;28;20042;-55
2022/04/08 09:13:07;;;;;;;20.08;2.78;;;7.90;99.90;;;;;;4965692;28;20139;-56
2022/04/08 09:15:37;;;;;;;17.38;3.63;;;8.00;99.90;;;;;;4967523;28;20050;-55
2022/04/08 09:18:08;;;;;;;6.72;2.13;;;8.10;99.90;;;;;;4965408;28;20153;-56
2022/04/08 09:20:38;;;;;;;23.55;4.72;;;8.10;99.90;;;;;;4967463;28;20047;-56
2022/04/08 09:23:06;;;;;;;8.57;2.67;;;8.10;99.90;;;;;;4967754;28;20043;-56
2022/04/08 09:25:33;;;;;;;18.88;3.42;;;8.00;99.90;;;;;;4967040;28;20125;-56
2022/04/08 09:28:08;;;;;;;8.07;2.38;;;8.00;99.90;;;;;;4996932;28;20054;-58
2022/04/08 09:30:35;;;;;;;6.55;2.25;;;8.00;99.90;;;;;;5006771;28;20163;-58
2022/04/08 09:33:12;;;;;;;9.25;3.17;;;8.00;99.90;;;;;;5006524;28;20042;-58
2022/04/08 09:35:40;;;;;;;13.63;2.67;;;8.00;99.90;;;;;;5006477;28;20053;-57
2022/04/08 09:38:07;;;;;;;10.35;2.70;;;8.00;99.90;;;;;;5005326;28;20045;-57
2022/04/08 09:40:40;;;;;;;14.05;2.60;;;8.10;99.90;;;;;;5006104;28;20053;-55
2022/04/08 09:43:07;;;;;;;19.20;4.47;;;8.00;99.90;;;;;;5005151;28;20054;-55
2022/04/08 09:45:34;;;;;;;14.27;2.30;;;8.10;99.90;;;;;;5005578;28;20092;-58
2022/04/08 09:48:01;;;;;;;19.27;3.08;;;8.10;99.90;;;;;;5005747;28;20424;-57
2022/04/08 09:50:28;;;;;;;15.43;2.85;;;8.20;99.90;;;;;;4969336;28;20054;-55
2022/04/08 09:52:55;;;;;;;14.38;3.13;;;8.30;99.90;;;;;;5000532;28;20085;-55
2022/04/08 09:55:23;;;;;;;13.13;2.95;;;8.40;99.90;;;;;;4988608;28;20093;-54
2022/04/08 09:57:53;;;;;;;15.30;2.40;;;8.40;99.90;;;;;;4983955;28;20108;-57
2022/04/08 10:00:20;;;;;;;8.30;2.75;;;8.50;99.90;;;;;;5005734;28;20131;-55
2022/04/08 10:02:48;;;;;;;13.52;2.45;;;8.60;99.90;;;;;;5004571;28;20056;-57
2022/04/08 10:05:15;;;;;;;17.20;2.78;;;8.60;99.90;;;;;;4987641;28;20089;-56
2022/04/08 10:07:44;;;;;;;6.25;2.20;;;8.60;99.90;;;;;;5004361;28;20085;-55
2022/04/08 10:10:26;;;;;;;15.75;3.00;;;8.60;99.90;;;;;;4954273;28;20081;-56
2022/04/08 10:13:15;;;;;;;18.50;3.85;;;8.60;99.90;;;;;;4971462;28;20074;-58
2022/04/08 10:15:43;;;;;;;8.93;2.70;;;8.60;99.90;;;;;;5005628;28;20053;-57
2022/04/08 10:18:11;;;;;;;13.52;2.38;;;8.70;99.90;;;;;;4983936;28;20459;-57
2022/04/08 10:20:39;;;;;;;16.23;4.15;;;8.60;99.90;;;;;;5004607;28;20120;-59
2022/04/08 10:23:13;;;;;;;11.77;2.58;;;8.70;99.90;;;;;;4969713;28;20050;-56
2022/04/08 10:25:42;;;;;;;17.35;3.25;;;8.70;99.90;;;;;;4985473;28;20054;-58
2022/04/08 10:28:12;;;;;;;13.05;2.83;;;8.80;99.90;;;;;;5001679;28;20058;-56
2022/04/08 10:30:48;;;;;;;17.30;4.55;;;8.80;99.90;;;;;;5005589;28;20055;-57
2022/04/08 10:33:23;;;;;;;13.70;3.47;;;8.80;99.90;;;;;;5003914;28;20141;-56
2022/04/08 10:35:55;;;;;;;23.40;4.70;;;8.90;99.90;;;;;;4987763;28;20503;-55
2022/04/08 10:38:22;;;;;;;9.38;2.50;;;9.00;99.90;;;;;;4984027;28;20436;-56
2022/04/08 10:40:55;;;;;;;11.63;2.80;;;9.10;99.90;;;;;;5005123;28;20054;-60
2022/04/08 10:43:23;;;;;;;9.35;2.70;;;9.10;99.90;;;;;;5004593;28;20054;-56
2022/04/08 10:45:58;;;;;;;13.35;2.72;;;9.10;99.90;;;;;;5004714;28;20663;-57
2022/04/08 10:48:32;;;;;;;19.17;3.33;;;9.10;98.80;;;;;;5004311;28;20582;-56
2022/04/08 10:51:08;;;;;;;8.68;1.98;;;9.10;99.40;;;;;;5003051;28;20048;-56
2022/04/08 10:53:40;;;;;;;6.68;2.85;;;9.10;99.20;;;;;;5004574;28;20065;-54
2022/04/08 10:56:10;;;;;;;11.57;2.47;;;9.10;99.60;;;;;;4987514;28;20046;-56
2022/04/08 10:58:41;;;;;;;19.42;2.78;;;9.20;99.70;;;;;;5004413;28;20061;-56
2022/04/08 11:01:24;;;;;;;19.52;3.92;;;9.30;99.50;;;;;;5000988;28;20077;-58
2022/04/08 11:03:54;;;;;;;15.80;2.95;;;9.40;98.80;;;;;;5000938;28;20050;-57
2022/04/08 11:06:24;;;;;;;13.02;2.67;;;9.40;98.60;;;;;;5004475;28;20054;-55
2022/04/08 11:08:52;;;;;;;10.68;2.63;;;9.50;99.40;;;;;;5004339;28;20073;-55
2022/04/08 11:11:36;;;;;;;8.65;2.75;;;9.50;98.70;;;;;;4974559;28;20049;-57
2022/04/08 11:14:03;;;;;;;15.88;3.15;;;9.40;97.80;;;;;;5003778;28;20124;-57
2022/04/08 11:16:31;;;;;;;13.07;2.28;;;9.40;98.70;;;;;;4986244;28;20053;-57
2022/04/08 11:18:59;;;;;;;16.13;2.55;;;9.50;98.80;;;;;;4971048;28;20062;-57
2022/04/08 11:21:26;;;;;;;7.78;2.30;;;9.60;99.00;;;;;;5004247;28;20521;-57
2022/04/08 11:24:09;;;;;;;11.50;3.00;;;9.80;98.80;;;;;;4975305;28;20437;-58
2022/04/08 11:26:49;;;;;;;11.13;2.88;;;9.90;98.00;;;;;;5001260;28;20141;-57
2022/04/08 11:29:17;;;;;;;10.95;2.80;;;10.00;97.50;;;;;;4983132;28;20104;-57
2022/04/08 11:31:45;;;;;;;10.95;2.88;;;10.00;98.10;;;;;;5002379;28;20445;-61
2022/04/08 11:34:13;;;;;;;10.40;2.92;;;10.10;97.90;;;;;;5002049;28;20042;-59
2022/04/08 11:36:40;;;;;;;11.48;3.05;;;10.20;96.60;;;;;;5002378;28;20707;-58
2022/04/08 11:39:06;;;;;;;12.25;3.05;;;10.20;97.50;;;;;;4979143;28;20518;-57
2022/04/08 11:41:34;;;;;;;8.18;2.75;;;10.30;97.20;;;;;;5000529;28;20069;-58
2022/04/08 11:44:03;;;;;;;13.30;2.92;;;10.40;97.40;;;;;;5002333;28;20060;-58
2022/04/08 11:46:30;;;;;;;14.63;3.30;;;10.40;97.00;;;;;;5001861;28;20167;-55
2022/04/08 11:48:57;;;;;;;14.82;2.33;;;10.50;96.40;;;;;;4978059;28;20058;-58
2022/04/08 11:51:23;;;;;;;7.63;1.75;;;10.50;96.10;;;;;;5002089;28;20465;-56
2022/04/08 11:53:51;;;;;;;10.15;2.40;;;10.50;94.80;;;;;;5002558;28;20990;-58
2022/04/08 11:56:25;;;;;;;9.57;2.30;;;10.30;95.10;;;;;;4984949;28;20077;-55
2022/04/08 11:59:14;;;;;;;19.92;2.10;;;10.30;94.50;;;;;;4995989;28;20208;-57
2022/04/08 12:01:41;;;;;;;10.05;1.70;;;10.40;96.00;;;;;;5002457;28;20169;-57
2022/04/08 12:04:12;;;;;;;18.42;2.10;;;10.60;95.10;;;;;;5002605;28;20165;-58
2022/04/08 12:06:48;;;;;;;11.18;2.45;;;10.50;94.70;;;;;;5003696;28;20081;-57
2022/04/08 12:09:17;;;;;;;14.35;3.55;;;10.60;94.80;;;;;;5002509;28;20137;-59
2022/04/08 12:11:44;;;;;;;7.18;2.92;;;10.70;94.10;;;;;;4979502;28;20049;-58
2022/04/08 12:14:19;;;;;;;9.50;2.58;;;10.70;95.10;;;;;;4984739;28;20073;-56
2022/04/08 12:16:48;;;;;;;11.18;2.33;;;10.80;93.80;;;;;;5002405;28;20701;-57
2022/04/08 12:19:18;;;;;;;12.07;2.45;;;10.50;95.20;;;;;;4980160;28;20054;-57
2022/04/08 12:22:09;;;;;;;15.45;2.45;;;10.70;95.80;;;;;;5004810;28;20042;-58
2022/04/08 12:24:43;;;;;;;17.38;2.47;;;10.80;95.40;;;;;;4982980;28;20056;-57
2022/04/08 12:27:19;;;;;;;6.03;2.00;;;10.80;93.30;;;;;;5001619;28;20052;-57
2022/04/08 12:30:00;;;;;;;8.98;2.78;;;10.70;94.00;;;;;;5005842;28;20146;-58
2022/04/08 12:32:36;;;;;;;19.20;5.57;;;10.80;91.90;;;;;;5003729;28;20058;-57
2022/04/08 12:35:06;;;;;;;6.95;2.15;;;10.60;92.90;;;;;;5005767;28;20060;-57
2022/04/08 12:37:34;;;;;;;9.18;2.30;;;10.90;94.40;;;;;;4987094;28;20188;-57
2022/04/08 12:40:00;;;;;;;10.80;2.17;;;11.20;94.40;;;;;;5006059;28;20116;-55
2022/04/08 12:42:27;;;;;;;9.60;1.90;;;11.30;93.80;;;;;;5005547;28;20077;-57
2022/04/08 12:44:54;;;;;;;11.02;2.00;;;11.40;93.80;;;;;;5005932;28;20053;-57
2022/04/08 12:47:21;;;;;;;11.60;1.85;;;11.20;92.60;;;;;;5005665;28;20088;-57
2022/04/08 12:49:48;;;;;;;8.52;2.00;;;11.30;92.10;;;;;;5005685;28;20110;-57
2022/04/08 12:52:14;;;;;;;12.25;2.00;;;11.30;93.00;;;;;;5005682;28;20050;-57
2022/04/08 12:54:41;;;;;;;8.73;1.95;;;11.40;92.80;;;;;;5005157;28;20052;-56
2022/04/08 12:57:08;;;;;;;10.27;1.85;;;11.40;90.70;;;;;;5005211;28;20132;-57
2022/04/08 12:59:35;;;;;;;9.30;2.38;;;11.20;90.80;;;;;;5005376;28;20089;-58
2022/04/08 13:02:02;;;;;;;7.97;2.28;;;11.10;88.50;;;;;;4988063;28;20054;-58
2022/04/08 13:04:29;;;;;;;12.00;2.88;;;11.00;90.20;;;;;;5005647;28;20112;-57